sensor_id;sensor_type;location;lat;lon;timestamp;pressure;altitude;pressure_sealevel;temperature;humidity
42945;BME280;28584;42.636;23.294;2023-02-02T00:00:57;159421.81;;;3.25;62.49
42945;BME280;28584;42.636;23.294;2023-02-02T00:03:23;159403.22;;;3.18;63.41
42945;BME280;28584;42.636;23.294;2023-02-02T00:05:50;159396.59;;;3.16;62.90
42945;BME280;28584;42.636;23.294;2023-02-02T00:08:17;159396.59;;;3.16;64.02
42945;BME280;28584;42.636;23.294;2023-02-02T00:10:43;159384.63;;;3.11;64.48
42945;BME280;28584;42.636;23.294;2023-02-02T00:13:10;159378.00;;;3.09;64.38
42945;BME280;28584;42.636;23.294;2023-02-02T00:15:35;159370.03;;;3.06;64.71
42945;BME280;28584;42.636;23.294;2023-02-02T00:18:01;159367.34;;;3.05;65.54
42945;BME280;28584;42.636;23.294;2023-02-02T00:20:26;159355.44;;;3.00;66.80
42945;BME280;28584;42.636;23.294;2023-02-02T00:22:52;159342.13;;;2.95;68.04
42945;BME280;28584;42.636;23.294;2023-02-02T00:25:17;159340.78;;;2.94;69.30
42945;BME280;28584;42.636;23.294;2023-02-02T00:27:43;159328.88;;;2.90;70.81
42945;BME280;28584;42.636;23.294;2023-02-02T00:30:09;159334.16;;;2.92;73.09
42945;BME280;28584;42.636;23.294;2023-02-02T00:32:34;159339.47;;;2.94;74.16
42945;BME280;28584;42.636;23.294;2023-02-02T00:35:00;159355.44;;;3.00;79.43
42945;BME280;28584;42.636;23.294;2023-02-02T00:37:25;159350.09;;;2.98;82.82
42945;BME280;28584;42.636;23.294;2023-02-02T00:39:50;159331.50;;;2.91;84.92
42945;BME280;28584;42.636;23.294;2023-02-02T00:42:16;159294.34;;;2.77;83.66
42945;BME280;28584;42.636;23.294;2023-02-02T00:44:42;159304.94;;;2.81;87.47
42945;BME280;28584;42.636;23.294;2023-02-02T00:47:27;159289.00;;;2.75;88.17
42945;BME280;28584;42.636;23.294;2023-02-02T00:49:53;159279.75;;;2.71;90.75
42945;BME280;28584;42.636;23.294;2023-02-02T00:52:18;159279.75;;;2.71;95.59
42945;BME280;28584;42.636;23.294;2023-02-02T00:54:44;159273.13;;;2.69;96.34
42945;BME280;28584;42.636;23.294;2023-02-02T00:57:13;159282.38;;;2.72;95.99
42945;BME280;28584;42.636;23.294;2023-02-02T00:59:38;159291.69;;;2.76;94.52
42945;BME280;28584;42.636;23.294;2023-02-02T01:02:04;159302.31;;;2.80;93.94
42945;BME280;28584;42.636;23.294;2023-02-02T01:04:29;159310.28;;;2.83;92.75
42945;BME280;28584;42.636;23.294;2023-02-02T01:06:55;159289.00;;;2.75;93.40
42945;BME280;28584;42.636;23.294;2023-02-02T01:09:20;159275.75;;;2.70;95.14
42945;BME280;28584;42.636;23.294;2023-02-02T01:11:46;159262.44;;;2.65;95.61
42945;BME280;28584;42.636;23.294;2023-02-02T01:14:11;159253.19;;;2.61;97.20
42945;BME280;28584;42.636;23.294;2023-02-02T01:16:37;159230.63;;;2.53;97.50
42945;BME280;28584;42.636;23.294;2023-02-02T01:19:02;159229.28;;;2.52;96.29
42945;BME280;28584;42.636;23.294;2023-02-02T01:21:28;159202.72;;;2.42;98.13
42945;BME280;28584;42.636;23.294;2023-02-02T01:23:53;159190.81;;;2.38;98.42
42945;BME280;28584;42.636;23.294;2023-02-02T01:26:19;159185.50;;;2.36;98.40
42945;BME280;28584;42.636;23.294;2023-02-02T01:28:44;159172.25;;;2.31;99.52
42945;BME280;28584;42.636;23.294;2023-02-02T01:31:12;159157.66;;;2.25;100.00
42945;BME280;28584;42.636;23.294;2023-02-02T01:33:38;159143.00;;;2.20;100.00
42945;BME280;28584;42.636;23.294;2023-02-02T01:36:07;159129.75;;;2.15;100.00
42945;BME280;28584;42.636;23.294;2023-02-02T01:38:34;159119.16;;;2.11;100.00
42945;BME280;28584;42.636;23.294;2023-02-02T01:41:00;159100.59;;;2.04;100.00
42945;BME280;28584;42.636;23.294;2023-02-02T01:43:48;159113.84;;;2.09;100.00
42945;BME280;28584;42.636;23.294;2023-02-02T01:46:29;159107.22;;;2.06;100.00
42945;BME280;28584;42.636;23.294;2023-02-02T01:49:10;159080.66;;;1.96;100.00
42945;BME280;28584;42.636;23.294;2023-02-02T01:51:58;159108.56;;;2.07;100.00
42945;BME280;28584;42.636;23.294;2023-02-02T01:54:34;159099.25;;;2.03;100.00
42945;BME280;28584;42.636;23.294;2023-02-02T01:57:04;159066.09;;;1.91;100.00
42945;BME280;28584;42.636;23.294;2023-02-02T01:59:31;159044.88;;;1.83;100.00
42945;BME280;28584;42.636;23.294;2023-02-02T02:01:57;159079.38;;;1.96;100.00
42945;BME280;28584;42.636;23.294;2023-02-02T02:04:23;159078.03;;;1.95;100.00
42945;BME280;28584;42.636;23.294;2023-02-02T02:06:51;159080.66;;;1.96;97.04
42945;BME280;28584;42.636;23.294;2023-02-02T02:09:18;159103.22;;;2.05;94.29
42945;BME280;28584;42.636;23.294;2023-02-02T02:11:44;159095.25;;;2.02;99.55
42945;BME280;28584;42.636;23.294;2023-02-02T02:14:10;159083.31;;;1.97;100.00
42945;BME280;28584;42.636;23.294;2023-02-02T02:37:02;159193.47;;;2.39;68.53
42945;BME280;28584;42.636;23.294;2023-02-02T02:39:37;159178.88;;;2.33;69.24
42945;BME280;28584;42.636;23.294;2023-02-02T02:42:13;159160.28;;;2.26;68.79
42945;BME280;28584;42.636;23.294;2023-02-02T02:44:41;159188.13;;;2.37;66.51
42945;BME280;28584;42.636;23.294;2023-02-02T02:47:07;159186.84;;;2.36;67.25
42945;BME280;28584;42.636;23.294;2023-02-02T02:49:41;159173.53;;;2.31;66.40
42945;BME280;28584;42.636;23.294;2023-02-02T02:52:06;159222.66;;;2.50;63.71
42945;BME280;28584;42.636;23.294;2023-02-02T02:54:34;159249.19;;;2.60;61.97
42945;BME280;28584;42.636;23.294;2023-02-02T02:59:45;159209.41;;;2.45;62.15
42945;BME280;28584;42.636;23.294;2023-02-02T03:07:43;159220.00;;;2.49;62.01
42945;BME280;28584;42.636;23.294;2023-02-02T03:10:12;159193.47;;;2.39;62.53
42945;BME280;28584;42.636;23.294;2023-02-02T03:12:47;159174.88;;;2.32;63.59
42945;BME280;28584;42.636;23.294;2023-02-02T03:15:14;159193.47;;;2.39;64.38
42945;BME280;28584;42.636;23.294;2023-02-02T03:17:41;159153.66;;;2.24;66.30
42945;BME280;28584;42.636;23.294;2023-02-02T03:20:07;159139.06;;;2.18;69.01
42945;BME280;28584;42.636;23.294;2023-02-02T03:22:33;159129.75;;;2.15;74.48
42945;BME280;28584;42.636;23.294;2023-02-02T03:24:58;159101.88;;;2.04;77.30
42945;BME280;28584;42.636;23.294;2023-02-02T03:27:24;159148.34;;;2.22;70.01
42945;BME280;28584;42.636;23.294;2023-02-02T03:29:50;159148.34;;;2.22;70.92
42945;BME280;28584;42.636;23.294;2023-02-02T03:32:16;159113.84;;;2.09;75.75
42945;BME280;28584;42.636;23.294;2023-02-02T03:34:42;159087.28;;;1.99;81.42
42945;BME280;28584;42.636;23.294;2023-02-02T03:37:07;159119.16;;;2.11;80.03
42945;BME280;28584;42.636;23.294;2023-02-02T03:39:33;159096.59;;;2.02;80.72
42945;BME280;28584;42.636;23.294;2023-02-02T03:41:58;159105.88;;;2.06;75.31
42945;BME280;28584;42.636;23.294;2023-02-02T03:44:23;159097.94;;;2.03;74.68
42945;BME280;28584;42.636;23.294;2023-02-02T03:46:52;159116.53;;;2.10;72.64
42945;BME280;28584;42.636;23.294;2023-02-02T03:49:18;159104.56;;;2.05;71.75
42945;BME280;28584;42.636;23.294;2023-02-02T03:51:43;159103.22;;;2.05;71.11
42945;BME280;28584;42.636;23.294;2023-02-02T03:54:09;159092.63;;;2.01;71.81
42945;BME280;28584;42.636;23.294;2023-02-02T03:56:34;159091.28;;;2.00;70.91
42945;BME280;28584;42.636;23.294;2023-02-02T03:59:00;159107.22;;;2.06;68.79
42945;BME280;28584;42.636;23.294;2023-02-02T04:01:28;159103.22;;;2.05;69.40
42945;BME280;28584;42.636;23.294;2023-02-02T04:03:54;159100.59;;;2.04;67.98
42945;BME280;28584;42.636;23.294;2023-02-02T04:06:21;159141.72;;;2.19;65.18
42945;BME280;28584;42.636;23.294;2023-02-02T04:08:46;159143.00;;;2.20;65.41
42945;BME280;28584;42.636;23.294;2023-02-02T04:11:12;159133.75;;;2.16;66.11
42945;BME280;28584;42.636;23.294;2023-02-02T04:13:37;159144.34;;;2.20;65.58
42945;BME280;28584;42.636;23.294;2023-02-02T04:16:04;159166.91;;;2.29;63.84
42945;BME280;28584;42.636;23.294;2023-02-02T04:18:30;159156.31;;;2.25;64.11
42945;BME280;28584;42.636;23.294;2023-02-02T04:20:59;159135.09;;;2.17;64.36
42945;BME280;28584;42.636;23.294;2023-02-02T04:23:25;159119.16;;;2.11;65.40
42945;BME280;28584;42.636;23.294;2023-02-02T04:25:51;159088.63;;;1.99;65.86
42945;BME280;28584;42.636;23.294;2023-02-02T04:28:16;159067.44;;;1.91;66.72
42945;BME280;28584;42.636;23.294;2023-02-02T04:30:42;159079.38;;;1.96;66.08
42945;BME280;28584;42.636;23.294;2023-02-02T04:33:07;159068.72;;;1.92;67.01
42945;BME280;28584;42.636;23.294;2023-02-02T04:35:33;159078.03;;;1.95;66.46
42945;BME280;28584;42.636;23.294;2023-02-02T04:37:58;159036.91;;;1.80;67.21
42945;BME280;28584;42.636;23.294;2023-02-02T04:40:24;158994.44;;;1.64;69.01
42945;BME280;28584;42.636;23.294;2023-02-02T04:42:49;158967.91;;;1.54;70.91
42945;BME280;28584;42.636;23.294;2023-02-02T04:45:15;158998.44;;;1.65;69.35
42945;BME280;28584;42.636;23.294;2023-02-02T04:47:40;159006.41;;;1.68;67.02
42945;BME280;28584;42.636;23.294;2023-02-02T04:50:06;159063.44;;;1.90;65.22
42945;BME280;28584;42.636;23.294;2023-02-02T04:52:32;159082.00;;;1.97;64.34
42945;BME280;28584;42.636;23.294;2023-02-02T04:54:57;159055.47;;;1.87;64.53
42945;BME280;28584;42.636;23.294;2023-02-02T04:57:23;159020.97;;;1.74;64.54
42945;BME280;28584;42.636;23.294;2023-02-02T04:59:48;158991.81;;;1.63;65.71
42945;BME280;28584;42.636;23.294;2023-02-02T05:02:13;158989.16;;;1.62;66.39
42945;BME280;28584;42.636;23.294;2023-02-02T05:04:39;159026.31;;;1.76;67.10
42945;BME280;28584;42.636;23.294;2023-02-02T05:07:04;159032.94;;;1.78;67.44
42945;BME280;28584;42.636;23.294;2023-02-02T05:09:30;159038.25;;;1.80;68.06
42945;BME280;28584;42.636;23.294;2023-02-02T05:11:55;159064.75;;;1.90;67.83
42945;BME280;28584;42.636;23.294;2023-02-02T05:14:20;159042.19;;;1.82;68.37
42945;BME280;28584;42.636;23.294;2023-02-02T05:16:46;159062.09;;;1.89;67.30
42945;BME280;28584;42.636;23.294;2023-02-02T05:19:11;159060.75;;;1.89;66.60
42945;BME280;28584;42.636;23.294;2023-02-02T05:21:37;159095.25;;;2.02;65.57
42945;BME280;28584;42.636;23.294;2023-02-02T05:24:02;159115.19;;;2.09;65.47
42945;BME280;28584;42.636;23.294;2023-02-02T05:26:28;159092.63;;;2.01;65.29
42945;BME280;28584;42.636;23.294;2023-02-02T05:28:55;159042.19;;;1.82;66.52
42945;BME280;28584;42.636;23.294;2023-02-02T05:31:20;159089.97;;;2.00;66.89
42945;BME280;28584;42.636;23.294;2023-02-02T05:33:46;159079.38;;;1.96;67.27
42945;BME280;28584;42.636;23.294;2023-02-02T05:36:11;159055.47;;;1.87;67.20
42945;BME280;28584;42.636;23.294;2023-02-02T05:38:37;159083.31;;;1.97;67.10
42945;BME280;28584;42.636;23.294;2023-02-02T05:41:03;159100.59;;;2.04;66.80
42945;BME280;28584;42.636;23.294;2023-02-02T05:43:31;159047.50;;;1.84;68.40
42945;BME280;28584;42.636;23.294;2023-02-02T05:45:57;159060.75;;;1.89;68.77
42945;BME280;28584;42.636;23.294;2023-02-02T05:48:22;159108.56;;;2.07;67.19
42945;BME280;28584;42.636;23.294;2023-02-02T05:53:51;159177.53;;;2.33;63.56
42945;BME280;28584;42.636;23.294;2023-02-02T05:56:17;159222.66;;;2.50;62.98
42945;BME280;28584;42.636;23.294;2023-02-02T05:58:42;159205.41;;;2.43;63.40
42945;BME280;28584;42.636;23.294;2023-02-02T06:01:08;159233.25;;;2.54;62.13
42945;BME280;28584;42.636;23.294;2023-02-02T06:03:34;159235.94;;;2.55;62.65
42945;BME280;28584;42.636;23.294;2023-02-02T06:06:00;159246.56;;;2.59;63.34
42945;BME280;28584;42.636;23.294;2023-02-02T06:08:25;159239.94;;;2.56;62.86
42945;BME280;28584;42.636;23.294;2023-02-02T06:10:51;159299.66;;;2.79;60.46
42945;BME280;28584;42.636;23.294;2023-02-02T06:13:16;159326.19;;;2.89;60.62
42945;BME280;28584;42.636;23.294;2023-02-02T06:15:42;159346.09;;;2.97;60.17
42945;BME280;28584;42.636;23.294;2023-02-02T06:18:08;159387.28;;;3.12;60.09
42945;BME280;28584;42.636;23.294;2023-02-02T06:20:33;159400.53;;;3.17;60.71
42945;BME280;28584;42.636;23.294;2023-02-02T06:22:59;159411.19;;;3.21;60.44
42945;BME280;28584;42.636;23.294;2023-02-02T06:25:25;159392.59;;;3.14;61.31
42945;BME280;28584;42.636;23.294;2023-02-02T06:27:54;159393.91;;;3.15;61.23
42945;BME280;28584;42.636;23.294;2023-02-02T06:30:20;159411.19;;;3.21;61.28
42945;BME280;28584;42.636;23.294;2023-02-02T06:32:45;159432.44;;;3.29;61.07
42945;BME280;28584;42.636;23.294;2023-02-02T06:35:11;159424.44;;;3.26;61.67
42945;BME280;28584;42.636;23.294;2023-02-02T06:37:36;159425.81;;;3.27;61.70
42945;BME280;28584;42.636;23.294;2023-02-02T06:40:05;159453.66;;;3.37;60.80
42945;BME280;28584;42.636;23.294;2023-02-02T06:42:30;159440.41;;;3.32;61.56
42945;BME280;28584;42.636;23.294;2023-02-02T06:44:55;159433.78;;;3.30;61.56
42945;BME280;28584;42.636;23.294;2023-02-02T06:47:21;159441.69;;;3.33;61.11
42945;BME280;28584;42.636;23.294;2023-02-02T06:49:46;159461.63;;;3.40;62.48
42945;BME280;28584;42.636;23.294;2023-02-02T06:52:12;159449.66;;;3.36;62.59
42945;BME280;28584;42.636;23.294;2023-02-02T06:54:37;159445.69;;;3.34;62.07
42945;BME280;28584;42.636;23.294;2023-02-02T06:57:02;159472.25;;;3.44;60.80
42945;BME280;28584;42.636;23.294;2023-02-02T06:59:28;159522.75;;;3.63;60.09
42945;BME280;28584;42.636;23.294;2023-02-02T07:01:53;159528.03;;;3.65;60.34
42945;BME280;28584;42.636;23.294;2023-02-02T07:04:19;159526.75;;;3.65;60.51
42945;BME280;28584;42.636;23.294;2023-02-02T07:06:45;159536.03;;;3.68;60.92
42945;BME280;28584;42.636;23.294;2023-02-02T07:09:10;159521.41;;;3.63;61.34
42945;BME280;28584;42.636;23.294;2023-02-02T07:11:35;159516.13;;;3.61;62.27
42945;BME280;28584;42.636;23.294;2023-02-02T07:14:01;159536.03;;;3.68;61.45
42945;BME280;28584;42.636;23.294;2023-02-02T07:16:27;159562.59;;;3.78;61.52
42945;BME280;28584;42.636;23.294;2023-02-02T07:18:53;159599.81;;;3.92;60.41
42945;BME280;28584;42.636;23.294;2023-02-02T07:21:20;159603.78;;;3.94;59.75
42945;BME280;28584;42.636;23.294;2023-02-02T07:23:46;159589.19;;;3.88;59.68
42945;BME280;28584;42.636;23.294;2023-02-02T07:26:13;159567.94;;;3.80;60.10
42945;BME280;28584;42.636;23.294;2023-02-02T07:28:39;159558.59;;;3.77;60.39
42945;BME280;28584;42.636;23.294;2023-02-02T07:31:16;159534.72;;;3.68;61.16
42945;BME280;28584;42.636;23.294;2023-02-02T07:33:43;159530.75;;;3.66;61.37
42945;BME280;28584;42.636;23.294;2023-02-02T07:36:10;159567.94;;;3.80;61.08
42945;BME280;28584;42.636;23.294;2023-02-02T07:38:36;159698.16;;;4.29;60.52
42945;BME280;28584;42.636;23.294;2023-02-02T07:41:03;159740.66;;;4.45;60.03
42945;BME280;28584;42.636;23.294;2023-02-02T07:43:28;159738.03;;;4.44;60.32
42945;BME280;28584;42.636;23.294;2023-02-02T07:45:54;159726.06;;;4.40;59.83
42945;BME280;28584;42.636;23.294;2023-02-02T07:48:25;159735.38;;;4.43;59.59
42945;BME280;28584;42.636;23.294;2023-02-02T07:50:51;159775.25;;;4.58;58.89
42945;BME280;28584;42.636;23.294;2023-02-02T07:53:16;159793.88;;;4.65;59.13
42945;BME280;28584;42.636;23.294;2023-02-02T07:55:42;159833.78;;;4.80;59.07
42945;BME280;28584;42.636;23.294;2023-02-02T07:58:07;159942.81;;;5.21;58.73
42945;BME280;28584;42.636;23.294;2023-02-02T08:00:34;159989.38;;;5.39;58.40
42945;BME280;28584;42.636;23.294;2023-02-02T08:02:59;159932.16;;;5.17;58.94
42945;BME280;28584;42.636;23.294;2023-02-02T08:05:25;159917.53;;;5.12;59.72
42945;BME280;28584;42.636;23.294;2023-02-02T08:07:50;159945.50;;;5.22;60.48
42945;BME280;28584;42.636;23.294;2023-02-02T08:10:16;160073.25;;;5.70;59.98
42945;BME280;28584;42.636;23.294;2023-02-02T08:12:41;160162.44;;;6.04;57.79
42945;BME280;28584;42.636;23.294;2023-02-02T08:15:07;160272.94;;;6.46;57.90
42945;BME280;28584;42.636;23.294;2023-02-02T08:17:32;160334.22;;;6.69;55.96
42945;BME280;28584;42.636;23.294;2023-02-02T08:19:58;160479.41;;;7.23;54.61
42945;BME280;28584;42.636;23.294;2023-02-02T08:22:23;160500.75;;;7.31;54.33
42945;BME280;28584;42.636;23.294;2023-02-02T08:24:49;160443.44;;;7.10;55.43
42945;BME280;28584;42.636;23.294;2023-02-02T08:27:15;160330.22;;;6.67;55.78
42945;BME280;28584;42.636;23.294;2023-02-02T08:29:41;160143.81;;;5.97;57.07
42945;BME280;28584;42.636;23.294;2023-02-02T08:32:06;160029.28;;;5.54;58.77
42945;BME280;28584;42.636;23.294;2023-02-02T08:34:32;159961.44;;;5.28;60.08
42945;BME280;28584;42.636;23.294;2023-02-02T08:37:01;159914.91;;;5.11;60.80
42945;BME280;28584;42.636;23.294;2023-02-02T08:39:27;159890.94;;;5.02;61.32
42945;BME280;28584;42.636;23.294;2023-02-02T08:41:56;159937.50;;;5.19;61.68
42945;BME280;28584;42.636;23.294;2023-02-02T08:44:21;159930.88;;;5.17;61.67
42945;BME280;28584;42.636;23.294;2023-02-02T08:46:47;159920.25;;;5.13;62.09
42945;BME280;28584;42.636;23.294;2023-02-02T08:49:13;159932.16;;;5.17;62.08
42945;BME280;28584;42.636;23.294;2023-02-02T08:51:39;159964.13;;;5.29;62.46
42945;BME280;28584;42.636;23.294;2023-02-02T08:54:04;159937.50;;;5.19;62.61
42945;BME280;28584;42.636;23.294;2023-02-02T08:56:30;159989.38;;;5.39;62.62
42945;BME280;28584;42.636;23.294;2023-02-02T08:58:56;160101.22;;;5.81;61.22
42945;BME280;28584;42.636;23.294;2023-02-02T09:01:30;160142.47;;;5.97;60.44
42945;BME280;28584;42.636;23.294;2023-02-02T09:04:02;160167.75;;;6.06;59.99
42945;BME280;28584;42.636;23.294;2023-02-02T09:06:37;160175.75;;;6.09;59.81
42945;BME280;28584;42.636;23.294;2023-02-02T09:09:04;160158.47;;;6.03;60.19
42945;BME280;28584;42.636;23.294;2023-02-02T09:11:30;160147.81;;;5.99;59.84
42945;BME280;28584;42.636;23.294;2023-02-02T09:13:58;160123.84;;;5.90;59.95
42945;BME280;28584;42.636;23.294;2023-02-02T09:16:25;160153.09;;;6.01;59.93
42945;BME280;28584;42.636;23.294;2023-02-02T09:18:51;160154.47;;;6.01;59.02
42945;BME280;28584;42.636;23.294;2023-02-02T09:21:18;160138.47;;;5.95;59.73
42945;BME280;28584;42.636;23.294;2023-02-02T09:23:45;160147.81;;;5.99;59.89
42945;BME280;28584;42.636;23.294;2023-02-02T09:28:43;160147.81;;;5.99;59.75
42945;BME280;28584;42.636;23.294;2023-02-02T09:31:09;160145.13;;;5.98;60.35
42945;BME280;28584;42.636;23.294;2023-02-02T09:33:34;160147.81;;;5.99;59.50
42945;BME280;28584;42.636;23.294;2023-02-02T09:38:29;160154.47;;;6.01;59.64
42945;BME280;28584;42.636;23.294;2023-02-02T09:40:55;160179.75;;;6.11;58.85
42945;BME280;28584;42.636;23.294;2023-02-02T09:49:09;160181.09;;;6.11;58.34
42945;BME280;28584;42.636;23.294;2023-02-02T09:51:45;160191.72;;;6.15;57.59
42945;BME280;28584;42.636;23.294;2023-02-02T09:54:22;160193.09;;;6.16;57.93
42945;BME280;28584;42.636;23.294;2023-02-02T09:56:52;160218.34;;;6.25;58.36
42945;BME280;28584;42.636;23.294;2023-02-02T09:59:23;160239.66;;;6.33;58.77
42945;BME280;28584;42.636;23.294;2023-02-02T10:01:54;160241.00;;;6.34;58.50
42945;BME280;28584;42.636;23.294;2023-02-02T10:04:26;160237.00;;;6.32;57.95
42945;BME280;28584;42.636;23.294;2023-02-02T10:06:59;160255.66;;;6.39;58.00
42945;BME280;28584;42.636;23.294;2023-02-02T10:09:50;160294.28;;;6.54;57.15
42945;BME280;28584;42.636;23.294;2023-02-02T10:12:37;160267.63;;;6.44;57.37
42945;BME280;28584;42.636;23.294;2023-02-02T10:20:56;160283.56;;;6.50;57.17
42945;BME280;28584;42.636;23.294;2023-02-02T10:23:34;160312.91;;;6.61;57.14
42945;BME280;28584;42.636;23.294;2023-02-02T10:26:17;160288.94;;;6.52;56.56
42945;BME280;28584;42.636;23.294;2023-02-02T10:31:32;160358.19;;;6.78;56.30
42945;BME280;28584;42.636;23.294;2023-02-02T10:34:09;160312.91;;;6.61;57.32
42945;BME280;28584;42.636;23.294;2023-02-02T10:36:49;160382.16;;;6.87;57.05
42945;BME280;28584;42.636;23.294;2023-02-02T10:42:22;160456.75;;;7.15;56.30
42945;BME280;28584;42.636;23.294;2023-02-02T10:44:59;160439.44;;;7.08;56.24
42945;BME280;28584;42.636;23.294;2023-02-02T10:47:31;160392.78;;;6.91;57.10
42945;BME280;28584;42.636;23.294;2023-02-02T10:50:13;160427.44;;;7.04;56.09
42945;BME280;28584;42.636;23.294;2023-02-02T10:52:43;160360.84;;;6.79;56.36
42945;BME280;28584;42.636;23.294;2023-02-02T11:02:38;160387.50;;;6.89;56.13
42945;BME280;28584;42.636;23.294;2023-02-02T11:05:03;160435.44;;;7.07;55.83
42945;BME280;28584;42.636;23.294;2023-02-02T11:07:48;160355.50;;;6.77;55.62
42945;BME280;28584;42.636;23.294;2023-02-02T11:10:14;160286.28;;;6.51;55.66
42945;BME280;28584;42.636;23.294;2023-02-02T11:12:43;160267.63;;;6.44;55.87
42945;BME280;28584;42.636;23.294;2023-02-02T11:15:29;160251.63;;;6.38;56.37
42945;BME280;28584;42.636;23.294;2023-02-02T11:17:55;160258.28;;;6.40;56.25
42945;BME280;28584;42.636;23.294;2023-02-02T11:20:32;160249.00;;;6.37;56.02
42945;BME280;28584;42.636;23.294;2023-02-02T11:22:59;160259.63;;;6.41;55.19
42945;BME280;28584;42.636;23.294;2023-02-02T11:25:34;160260.97;;;6.41;54.92
42945;BME280;28584;42.636;23.294;2023-02-02T11:28:10;160299.56;;;6.56;55.27
42945;BME280;28584;42.636;23.294;2023-02-02T11:30:45;160318.22;;;6.63;55.74
42945;BME280;28584;42.636;23.294;2023-02-02T11:36:20;160383.50;;;6.87;55.05
42945;BME280;28584;42.636;23.294;2023-02-02T11:38:46;160352.84;;;6.76;54.18
42945;BME280;28584;42.636;23.294;2023-02-02T11:41:11;160296.91;;;6.55;54.67
42945;BME280;28584;42.636;23.294;2023-02-02T11:43:52;160318.22;;;6.63;55.53
42945;BME280;28584;42.636;23.294;2023-02-02T11:46:24;160324.88;;;6.65;55.30
42945;BME280;28584;42.636;23.294;2023-02-02T11:49:02;160324.88;;;6.65;55.04
42945;BME280;28584;42.636;23.294;2023-02-02T11:51:30;160336.84;;;6.70;55.24
42945;BME280;28584;42.636;23.294;2023-02-02T11:54:12;160374.16;;;6.84;55.70
42945;BME280;28584;42.636;23.294;2023-02-02T11:56:40;160358.19;;;6.78;54.62
42945;BME280;28584;42.636;23.294;2023-02-02T11:59:25;160363.50;;;6.80;53.54
42945;BME280;28584;42.636;23.294;2023-02-02T12:04:44;160298.28;;;6.55;55.04
42945;BME280;28584;42.636;23.294;2023-02-02T12:07:35;160291.56;;;6.53;54.55
42945;BME280;28584;42.636;23.294;2023-02-02T12:10:18;160310.22;;;6.60;54.88
42945;BME280;28584;42.636;23.294;2023-02-02T12:13:13;160304.91;;;6.58;55.25
42945;BME280;28584;42.636;23.294;2023-02-02T12:19:18;160391.50;;;6.90;55.23
42945;BME280;28584;42.636;23.294;2023-02-02T12:21:58;160486.03;;;7.26;54.95
42945;BME280;28584;42.636;23.294;2023-02-02T12:36:28;160363.50;;;6.80;51.08
42945;BME280;28584;42.636;23.294;2023-02-02T12:49:32;160259.63;;;6.41;50.78
42945;BME280;28584;42.636;23.294;2023-02-02T12:52:08;160230.34;;;6.30;51.52
42945;BME280;28584;42.636;23.294;2023-02-02T12:54:59;160225.00;;;6.28;52.09
42945;BME280;28584;42.636;23.294;2023-02-02T13:00:46;160219.72;;;6.26;52.28
42945;BME280;28584;42.636;23.294;2023-02-02T13:03:29;160222.34;;;6.27;51.86
42945;BME280;28584;42.636;23.294;2023-02-02T13:08:35;160249.00;;;6.37;51.84
42945;BME280;28584;42.636;23.294;2023-02-02T13:11:14;160268.94;;;6.44;52.07
42945;BME280;28584;42.636;23.294;2023-02-02T13:14:19;160299.56;;;6.56;52.25
42945;BME280;28584;42.636;23.294;2023-02-02T13:20:36;160326.22;;;6.66;51.78
42945;BME280;28584;42.636;23.294;2023-02-02T13:23:13;160307.56;;;6.59;51.32
42945;BME280;28584;42.636;23.294;2023-02-02T13:25:46;160295.56;;;6.54;51.58
42945;BME280;28584;42.636;23.294;2023-02-02T13:28:31;160302.22;;;6.57;52.09
42945;BME280;28584;42.636;23.294;2023-02-02T13:31:01;160302.22;;;6.57;52.50
42945;BME280;28584;42.636;23.294;2023-02-02T13:33:32;160291.56;;;6.53;52.39
42945;BME280;28584;42.636;23.294;2023-02-02T13:36:02;160246.28;;;6.36;52.40
42945;BME280;28584;42.636;23.294;2023-02-02T13:38:30;160183.75;;;6.12;53.23
42945;BME280;28584;42.636;23.294;2023-02-02T13:41:00;160161.09;;;6.04;54.40
42945;BME280;28584;42.636;23.294;2023-02-02T13:43:49;160089.16;;;5.76;54.77
42945;BME280;28584;42.636;23.294;2023-02-02T13:46:56;160030.63;;;5.54;54.81
42945;BME280;28584;42.636;23.294;2023-02-02T13:49:18;160035.97;;;5.56;55.14
42945;BME280;28584;42.636;23.294;2023-02-02T14:02:50;160233.00;;;6.31;59.13
42945;BME280;28584;42.636;23.294;2023-02-02T14:08:15;160327.56;;;6.66;61.03
42945;BME280;28584;42.636;23.294;2023-02-02T14:11:00;160278.28;;;6.48;61.79
42945;BME280;28584;42.636;23.294;2023-02-02T14:13:45;160264.94;;;6.43;62.68
42945;BME280;28584;42.636;23.294;2023-02-02T14:18:59;160155.81;;;6.02;66.11
42945;BME280;28584;42.636;23.294;2023-02-02T14:34:40;159922.88;;;5.14;74.76
42945;BME280;28584;42.636;23.294;2023-02-02T14:45:48;159573.22;;;3.82;100.00
42945;BME280;28584;42.636;23.294;2023-02-02T14:48:30;159411.19;;;3.21;100.00
42945;BME280;28584;42.636;23.294;2023-02-02T14:50:58;159385.94;;;3.12;100.00
42945;BME280;28584;42.636;23.294;2023-02-02T14:55:54;159082.00;;;1.97;100.00
42945;BME280;28584;42.636;23.294;2023-02-02T15:01:22;159007.75;;;1.69;100.00
42945;BME280;28584;42.636;23.294;2023-02-02T15:06:41;141351.13;;;1.38;100.00
42945;BME280;28584;42.636;23.294;2023-02-02T15:17:20;93914.97;;;0.24;100.00
42945;BME280;28584;42.636;23.294;2023-02-02T15:22:57;91412.53;;;0.18;100.00
42945;BME280;28584;42.636;23.294;2023-02-02T15:25:34;93408.63;;;0.16;100.00
42945;BME280;28584;42.636;23.294;2023-02-02T15:28:22;97275.97;;;0.16;100.00
42945;BME280;28584;42.636;23.294;2023-02-02T15:30:57;100836.25;;;0.18;100.00
42945;BME280;28584;42.636;23.294;2023-02-02T15:33:38;102899.91;;;0.10;100.00
42945;BME280;28584;42.636;23.294;2023-02-02T15:36:11;104225.44;;;0.06;100.00
42945;BME280;28584;42.636;23.294;2023-02-02T15:38:39;105008.94;;;0.06;100.00
42945;BME280;28584;42.636;23.294;2023-02-02T15:41:24;105740.84;;;-0.03;100.00